sensor_id;sensor_type;location;lat;lon;timestamp;P1;durP1;ratioP1;P2;durP2;ratioP2
68192;SDS011;55012;47.562;18.414;2023-12-29T00:01:50;58.58;;;26.00;;
68192;SDS011;55012;47.562;18.414;2023-12-29T00:04:15;56.90;;;25.27;;
68192;SDS011;55012;47.562;18.414;2023-12-29T00:06:41;55.90;;;24.73;;
68192;SDS011;55012;47.562;18.414;2023-12-29T00:09:06;57.42;;;25.35;;
68192;SDS011;55012;47.562;18.414;2023-12-29T00:11:32;55.17;;;24.70;;
68192;SDS011;55012;47.562;18.414;2023-12-29T00:13:58;56.47;;;24.50;;
68192;SDS011;55012;47.562;18.414;2023-12-29T00:16:23;51.85;;;23.58;;
68192;SDS011;55012;47.562;18.414;2023-12-29T00:18:49;48.95;;;21.35;;
68192;SDS011;55012;47.562;18.414;2023-12-29T00:21:14;42.92;;;18.88;;
68192;SDS011;55012;47.562;18.414;2023-12-29T00:23:39;41.30;;;19.17;;
68192;SDS011;55012;47.562;18.414;2023-12-29T00:26:05;39.05;;;18.30;;
68192;SDS011;55012;47.562;18.414;2023-12-29T00:28:30;42.88;;;18.88;;
68192;SDS011;55012;47.562;18.414;2023-12-29T00:30:56;44.63;;;20.45;;
68192;SDS011;55012;47.562;18.414;2023-12-29T00:33:21;42.05;;;18.48;;
68192;SDS011;55012;47.562;18.414;2023-12-29T00:35:46;44.03;;;18.65;;
68192;SDS011;55012;47.562;18.414;2023-12-29T00:38:12;43.80;;;19.83;;
68192;SDS011;55012;47.562;18.414;2023-12-29T00:40:37;43.72;;;19.27;;
68192;SDS011;55012;47.562;18.414;2023-12-29T00:43:02;45.70;;;21.10;;
68192;SDS011;55012;47.562;18.414;2023-12-29T00:45:28;47.97;;;22.02;;
68192;SDS011;55012;47.562;18.414;2023-12-29T00:47:57;46.25;;;21.25;;
68192;SDS011;55012;47.562;18.414;2023-12-29T00:50:25;53.65;;;23.48;;
68192;SDS011;55012;47.562;18.414;2023-12-29T00:52:51;47.55;;;22.08;;
68192;SDS011;55012;47.562;18.414;2023-12-29T00:55:17;52.40;;;23.88;;
68192;SDS011;55012;47.562;18.414;2023-12-29T00:57:42;52.28;;;23.55;;
68192;SDS011;55012;47.562;18.414;2023-12-29T01:00:07;50.97;;;24.15;;
68192;SDS011;55012;47.562;18.414;2023-12-29T01:02:35;50.67;;;23.35;;
68192;SDS011;55012;47.562;18.414;2023-12-29T01:05:01;49.13;;;23.02;;
68192;SDS011;55012;47.562;18.414;2023-12-29T01:07:26;47.80;;;22.23;;
68192;SDS011;55012;47.562;18.414;2023-12-29T01:09:52;50.03;;;21.95;;
68192;SDS011;55012;47.562;18.414;2023-12-29T01:12:17;47.53;;;21.35;;
68192;SDS011;55012;47.562;18.414;2023-12-29T01:14:42;46.25;;;21.88;;
68192;SDS011;55012;47.562;18.414;2023-12-29T01:17:08;44.30;;;20.23;;
68192;SDS011;55012;47.562;18.414;2023-12-29T01:19:33;45.13;;;20.85;;
68192;SDS011;55012;47.562;18.414;2023-12-29T01:21:58;44.17;;;20.42;;
68192;SDS011;55012;47.562;18.414;2023-12-29T01:24:24;50.38;;;21.10;;
68192;SDS011;55012;47.562;18.414;2023-12-29T01:26:49;45.75;;;21.60;;
68192;SDS011;55012;47.562;18.414;2023-12-29T01:29:14;48.72;;;21.65;;
68192;SDS011;55012;47.562;18.414;2023-12-29T01:31:40;43.13;;;20.02;;
68192;SDS011;55012;47.562;18.414;2023-12-29T01:34:05;42.97;;;19.65;;
68192;SDS011;55012;47.562;18.414;2023-12-29T01:36:30;37.83;;;18.73;;
68192;SDS011;55012;47.562;18.414;2023-12-29T01:38:57;41.25;;;18.58;;
68192;SDS011;55012;47.562;18.414;2023-12-29T01:41:22;44.55;;;19.83;;
68192;SDS011;55012;47.562;18.414;2023-12-29T01:46:25;46.67;;;21.00;;
68192;SDS011;55012;47.562;18.414;2023-12-29T01:48:53;42.45;;;20.42;;
68192;SDS011;55012;47.562;18.414;2023-12-29T01:51:19;42.75;;;19.85;;
68192;SDS011;55012;47.562;18.414;2023-12-29T01:53:47;45.05;;;20.67;;
68192;SDS011;55012;47.562;18.414;2023-12-29T01:56:13;42.28;;;20.30;;
68192;SDS011;55012;47.562;18.414;2023-12-29T01:58:39;46.58;;;21.33;;
68192;SDS011;55012;47.562;18.414;2023-12-29T02:01:05;48.30;;;21.48;;
68192;SDS011;55012;47.562;18.414;2023-12-29T02:03:32;49.42;;;21.65;;
68192;SDS011;55012;47.562;18.414;2023-12-29T02:05:58;45.90;;;20.70;;
68192;SDS011;55012;47.562;18.414;2023-12-29T02:08:24;44.85;;;20.52;;
68192;SDS011;55012;47.562;18.414;2023-12-29T02:10:49;44.40;;;20.40;;
68192;SDS011;55012;47.562;18.414;2023-12-29T02:13:15;47.22;;;19.58;;
68192;SDS011;55012;47.562;18.414;2023-12-29T02:15:41;44.88;;;20.05;;
68192;SDS011;55012;47.562;18.414;2023-12-29T02:18:07;48.67;;;21.05;;
68192;SDS011;55012;47.562;18.414;2023-12-29T02:20:39;45.42;;;20.15;;
68192;SDS011;55012;47.562;18.414;2023-12-29T02:23:06;47.13;;;20.48;;
68192;SDS011;55012;47.562;18.414;2023-12-29T02:25:31;51.42;;;22.48;;
68192;SDS011;55012;47.562;18.414;2023-12-29T02:31:00;58.50;;;24.08;;
68192;SDS011;55012;47.562;18.414;2023-12-29T02:33:31;54.50;;;23.50;;
68192;SDS011;55012;47.562;18.414;2023-12-29T02:36:00;63.88;;;24.83;;
68192;SDS011;55012;47.562;18.414;2023-12-29T02:38:28;57.95;;;24.77;;
68192;SDS011;55012;47.562;18.414;2023-12-29T02:40:57;56.65;;;24.67;;
68192;SDS011;55012;47.562;18.414;2023-12-29T02:43:23;53.67;;;24.00;;
68192;SDS011;55012;47.562;18.414;2023-12-29T02:45:49;50.92;;;22.50;;
68192;SDS011;55012;47.562;18.414;2023-12-29T02:48:14;54.25;;;23.42;;
68192;SDS011;55012;47.562;18.414;2023-12-29T02:50:40;57.00;;;24.63;;
68192;SDS011;55012;47.562;18.414;2023-12-29T02:53:05;54.13;;;24.73;;
68192;SDS011;55012;47.562;18.414;2023-12-29T02:55:31;56.03;;;25.20;;
68192;SDS011;55012;47.562;18.414;2023-12-29T02:57:56;55.97;;;25.15;;
68192;SDS011;55012;47.562;18.414;2023-12-29T03:00:22;53.22;;;23.92;;
68192;SDS011;55012;47.562;18.414;2023-12-29T03:02:47;58.30;;;25.45;;
68192;SDS011;55012;47.562;18.414;2023-12-29T03:05:13;55.45;;;24.70;;
68192;SDS011;55012;47.562;18.414;2023-12-29T03:07:39;52.47;;;23.98;;
68192;SDS011;55012;47.562;18.414;2023-12-29T03:10:05;54.63;;;24.30;;
68192;SDS011;55012;47.562;18.414;2023-12-29T03:12:31;53.13;;;23.60;;
68192;SDS011;55012;47.562;18.414;2023-12-29T03:14:57;54.85;;;24.35;;
68192;SDS011;55012;47.562;18.414;2023-12-29T03:17:22;58.60;;;24.75;;
68192;SDS011;55012;47.562;18.414;2023-12-29T03:19:47;49.72;;;22.20;;
68192;SDS011;55012;47.562;18.414;2023-12-29T03:22:13;51.92;;;22.98;;
68192;SDS011;55012;47.562;18.414;2023-12-29T03:24:40;51.80;;;23.13;;
68192;SDS011;55012;47.562;18.414;2023-12-29T03:27:06;51.72;;;24.25;;
68192;SDS011;55012;47.562;18.414;2023-12-29T03:29:31;58.00;;;25.48;;
68192;SDS011;55012;47.562;18.414;2023-12-29T03:31:57;59.70;;;26.15;;
68192;SDS011;55012;47.562;18.414;2023-12-29T03:34:22;57.83;;;25.85;;
68192;SDS011;55012;47.562;18.414;2023-12-29T03:36:48;59.72;;;26.00;;
68192;SDS011;55012;47.562;18.414;2023-12-29T03:39:13;57.78;;;26.05;;
68192;SDS011;55012;47.562;18.414;2023-12-29T03:41:38;58.67;;;25.75;;
68192;SDS011;55012;47.562;18.414;2023-12-29T03:44:04;64.47;;;26.77;;
68192;SDS011;55012;47.562;18.414;2023-12-29T03:46:30;57.70;;;25.75;;
68192;SDS011;55012;47.562;18.414;2023-12-29T03:48:56;57.30;;;26.38;;
68192;SDS011;55012;47.562;18.414;2023-12-29T03:51:22;57.42;;;25.30;;
68192;SDS011;55012;47.562;18.414;2023-12-29T03:53:47;57.72;;;25.63;;
68192;SDS011;55012;47.562;18.414;2023-12-29T03:56:15;57.47;;;25.48;;
68192;SDS011;55012;47.562;18.414;2023-12-29T03:58:42;55.63;;;25.35;;
68192;SDS011;55012;47.562;18.414;2023-12-29T04:01:11;59.88;;;26.58;;
68192;SDS011;55012;47.562;18.414;2023-12-29T04:03:37;58.28;;;26.25;;
68192;SDS011;55012;47.562;18.414;2023-12-29T04:06:03;58.70;;;26.35;;
68192;SDS011;55012;47.562;18.414;2023-12-29T04:08:29;59.92;;;26.48;;
68192;SDS011;55012;47.562;18.414;2023-12-29T04:10:54;58.70;;;25.58;;
68192;SDS011;55012;47.562;18.414;2023-12-29T04:13:19;60.20;;;26.38;;
68192;SDS011;55012;47.562;18.414;2023-12-29T04:15:45;58.25;;;26.27;;
68192;SDS011;55012;47.562;18.414;2023-12-29T04:18:10;63.42;;;28.15;;
68192;SDS011;55012;47.562;18.414;2023-12-29T04:20:36;63.95;;;29.35;;
68192;SDS011;55012;47.562;18.414;2023-12-29T04:23:01;70.47;;;30.35;;
68192;SDS011;55012;47.562;18.414;2023-12-29T04:25:27;64.50;;;29.45;;
68192;SDS011;55012;47.562;18.414;2023-12-29T04:27:53;64.65;;;30.23;;
68192;SDS011;55012;47.562;18.414;2023-12-29T04:30:18;64.40;;;28.85;;
68192;SDS011;55012;47.562;18.414;2023-12-29T04:32:43;67.45;;;29.50;;
68192;SDS011;55012;47.562;18.414;2023-12-29T04:35:09;60.40;;;28.90;;
68192;SDS011;55012;47.562;18.414;2023-12-29T04:37:37;65.28;;;30.45;;
68192;SDS011;55012;47.562;18.414;2023-12-29T04:40:03;66.18;;;30.35;;
68192;SDS011;55012;47.562;18.414;2023-12-29T04:42:29;63.88;;;29.25;;
68192;SDS011;55012;47.562;18.414;2023-12-29T04:44:55;62.63;;;29.63;;
68192;SDS011;55012;47.562;18.414;2023-12-29T04:47:20;59.58;;;27.67;;
68192;SDS011;55012;47.562;18.414;2023-12-29T04:49:45;57.60;;;27.80;;
68192;SDS011;55012;47.562;18.414;2023-12-29T04:52:11;54.33;;;25.92;;
68192;SDS011;55012;47.562;18.414;2023-12-29T04:54:36;57.50;;;26.77;;
68192;SDS011;55012;47.562;18.414;2023-12-29T04:57:02;57.53;;;26.23;;
68192;SDS011;55012;47.562;18.414;2023-12-29T04:59:27;55.53;;;26.77;;
68192;SDS011;55012;47.562;18.414;2023-12-29T05:01:53;56.28;;;26.35;;
68192;SDS011;55012;47.562;18.414;2023-12-29T05:04:18;53.33;;;24.50;;
68192;SDS011;55012;47.562;18.414;2023-12-29T05:06:43;56.88;;;25.80;;
68192;SDS011;55012;47.562;18.414;2023-12-29T05:09:09;57.50;;;26.08;;
68192;SDS011;55012;47.562;18.414;2023-12-29T05:11:34;55.97;;;26.05;;
68192;SDS011;55012;47.562;18.414;2023-12-29T05:13:59;58.75;;;27.65;;
68192;SDS011;55012;47.562;18.414;2023-12-29T05:16:25;55.70;;;26.83;;
68192;SDS011;55012;47.562;18.414;2023-12-29T05:18:50;55.65;;;26.48;;
68192;SDS011;55012;47.562;18.414;2023-12-29T05:21:16;57.03;;;26.33;;
68192;SDS011;55012;47.562;18.414;2023-12-29T05:23:43;55.47;;;24.48;;
68192;SDS011;55012;47.562;18.414;2023-12-29T05:26:09;52.47;;;24.52;;
68192;SDS011;55012;47.562;18.414;2023-12-29T05:28:34;47.70;;;22.65;;
68192;SDS011;55012;47.562;18.414;2023-12-29T05:30:59;49.45;;;22.23;;
68192;SDS011;55012;47.562;18.414;2023-12-29T05:33:28;50.00;;;23.30;;
68192;SDS011;55012;47.562;18.414;2023-12-29T05:35:54;51.00;;;24.42;;
68192;SDS011;55012;47.562;18.414;2023-12-29T05:38:19;57.63;;;25.45;;
68192;SDS011;55012;47.562;18.414;2023-12-29T05:40:44;55.83;;;26.25;;
68192;SDS011;55012;47.562;18.414;2023-12-29T05:43:10;53.97;;;24.63;;
68192;SDS011;55012;47.562;18.414;2023-12-29T05:45:35;53.42;;;24.60;;
68192;SDS011;55012;47.562;18.414;2023-12-29T05:48:00;56.53;;;26.23;;
68192;SDS011;55012;47.562;18.414;2023-12-29T05:50:26;53.58;;;25.23;;
68192;SDS011;55012;47.562;18.414;2023-12-29T05:52:51;54.45;;;25.25;;
68192;SDS011;55012;47.562;18.414;2023-12-29T05:55:17;52.42;;;24.10;;
68192;SDS011;55012;47.562;18.414;2023-12-29T05:57:43;55.63;;;24.35;;
68192;SDS011;55012;47.562;18.414;2023-12-29T06:00:09;56.67;;;24.65;;
68192;SDS011;55012;47.562;18.414;2023-12-29T06:02:39;55.45;;;24.92;;
68192;SDS011;55012;47.562;18.414;2023-12-29T06:05:06;55.92;;;26.75;;
68192;SDS011;55012;47.562;18.414;2023-12-29T06:07:31;61.75;;;26.80;;
68192;SDS011;55012;47.562;18.414;2023-12-29T06:09:57;58.03;;;26.65;;
68192;SDS011;55012;47.562;18.414;2023-12-29T06:12:22;62.45;;;28.02;;
68192;SDS011;55012;47.562;18.414;2023-12-29T06:14:47;60.45;;;27.35;;
68192;SDS011;55012;47.562;18.414;2023-12-29T06:17:13;56.72;;;26.17;;
68192;SDS011;55012;47.562;18.414;2023-12-29T06:19:39;61.55;;;26.65;;
68192;SDS011;55012;47.562;18.414;2023-12-29T06:22:04;58.28;;;26.00;;
68192;SDS011;55012;47.562;18.414;2023-12-29T06:24:30;59.05;;;26.52;;
68192;SDS011;55012;47.562;18.414;2023-12-29T06:26:55;57.00;;;26.52;;
68192;SDS011;55012;47.562;18.414;2023-12-29T06:29:20;55.50;;;25.65;;
68192;SDS011;55012;47.562;18.414;2023-12-29T06:31:46;53.20;;;25.48;;
68192;SDS011;55012;47.562;18.414;2023-12-29T06:34:11;60.10;;;28.25;;
68192;SDS011;55012;47.562;18.414;2023-12-29T06:36:38;60.92;;;27.98;;
68192;SDS011;55012;47.562;18.414;2023-12-29T06:39:03;63.95;;;27.95;;
68192;SDS011;55012;47.562;18.414;2023-12-29T06:41:28;61.85;;;27.48;;
68192;SDS011;55012;47.562;18.414;2023-12-29T06:43:54;57.67;;;25.38;;
68192;SDS011;55012;47.562;18.414;2023-12-29T06:46:19;63.67;;;28.00;;
68192;SDS011;55012;47.562;18.414;2023-12-29T06:48:44;59.13;;;26.00;;
68192;SDS011;55012;47.562;18.414;2023-12-29T06:51:15;54.63;;;24.48;;
68192;SDS011;55012;47.562;18.414;2023-12-29T06:53:41;49.08;;;22.27;;
68192;SDS011;55012;47.562;18.414;2023-12-29T06:56:06;53.38;;;22.85;;
68192;SDS011;55012;47.562;18.414;2023-12-29T06:58:32;51.60;;;21.77;;
68192;SDS011;55012;47.562;18.414;2023-12-29T07:00:57;53.80;;;23.90;;
68192;SDS011;55012;47.562;18.414;2023-12-29T07:03:23;52.17;;;23.52;;
68192;SDS011;55012;47.562;18.414;2023-12-29T07:05:48;51.33;;;23.23;;
68192;SDS011;55012;47.562;18.414;2023-12-29T07:08:13;47.53;;;21.27;;
68192;SDS011;55012;47.562;18.414;2023-12-29T07:10:39;46.90;;;21.02;;
68192;SDS011;55012;47.562;18.414;2023-12-29T07:13:04;50.10;;;21.48;;
68192;SDS011;55012;47.562;18.414;2023-12-29T07:15:30;48.45;;;21.75;;
68192;SDS011;55012;47.562;18.414;2023-12-29T07:17:55;49.58;;;22.10;;
68192;SDS011;55012;47.562;18.414;2023-12-29T07:20:20;52.60;;;23.05;;
68192;SDS011;55012;47.562;18.414;2023-12-29T07:22:46;48.38;;;21.63;;
68192;SDS011;55012;47.562;18.414;2023-12-29T07:25:12;47.95;;;21.92;;
68192;SDS011;55012;47.562;18.414;2023-12-29T07:27:38;47.78;;;21.67;;
68192;SDS011;55012;47.562;18.414;2023-12-29T07:30:04;44.80;;;21.10;;
68192;SDS011;55012;47.562;18.414;2023-12-29T07:32:29;47.42;;;21.02;;
68192;SDS011;55012;47.562;18.414;2023-12-29T07:34:55;42.22;;;19.95;;
68192;SDS011;55012;47.562;18.414;2023-12-29T07:37:21;42.58;;;19.13;;
68192;SDS011;55012;47.562;18.414;2023-12-29T07:39:46;44.15;;;19.67;;
68192;SDS011;55012;47.562;18.414;2023-12-29T07:42:13;43.70;;;19.27;;
68192;SDS011;55012;47.562;18.414;2023-12-29T07:44:39;42.90;;;18.55;;
68192;SDS011;55012;47.562;18.414;2023-12-29T07:47:04;40.88;;;18.98;;
68192;SDS011;55012;47.562;18.414;2023-12-29T07:49:30;41.88;;;19.08;;
68192;SDS011;55012;47.562;18.414;2023-12-29T07:51:55;46.38;;;21.23;;
68192;SDS011;55012;47.562;18.414;2023-12-29T07:54:24;42.25;;;20.50;;
68192;SDS011;55012;47.562;18.414;2023-12-29T07:56:49;47.05;;;21.65;;
68192;SDS011;55012;47.562;18.414;2023-12-29T07:59:15;46.35;;;22.15;;
68192;SDS011;55012;47.562;18.414;2023-12-29T08:01:41;51.95;;;23.35;;
68192;SDS011;55012;47.562;18.414;2023-12-29T08:04:07;58.05;;;26.80;;
68192;SDS011;55012;47.562;18.414;2023-12-29T08:06:32;61.50;;;29.58;;
68192;SDS011;55012;47.562;18.414;2023-12-29T08:08:57;59.80;;;27.10;;
68192;SDS011;55012;47.562;18.414;2023-12-29T08:11:23;54.70;;;25.40;;
68192;SDS011;55012;47.562;18.414;2023-12-29T08:13:48;54.40;;;25.48;;
68192;SDS011;55012;47.562;18.414;2023-12-29T08:16:14;52.63;;;25.30;;
68192;SDS011;55012;47.562;18.414;2023-12-29T08:18:42;50.15;;;24.73;;
68192;SDS011;55012;47.562;18.414;2023-12-29T08:21:08;49.95;;;24.25;;
68192;SDS011;55012;47.562;18.414;2023-12-29T08:23:33;46.50;;;22.73;;
68192;SDS011;55012;47.562;18.414;2023-12-29T08:25:58;45.20;;;22.05;;
68192;SDS011;55012;47.562;18.414;2023-12-29T08:28:24;46.47;;;21.10;;
68192;SDS011;55012;47.562;18.414;2023-12-29T08:30:50;42.15;;;21.10;;
68192;SDS011;55012;47.562;18.414;2023-12-29T08:33:15;50.75;;;22.63;;
68192;SDS011;55012;47.562;18.414;2023-12-29T08:35:41;46.85;;;21.50;;
68192;SDS011;55012;47.562;18.414;2023-12-29T08:38:06;46.10;;;21.42;;
68192;SDS011;55012;47.562;18.414;2023-12-29T08:40:31;46.20;;;22.15;;
68192;SDS011;55012;47.562;18.414;2023-12-29T08:42:57;44.97;;;21.50;;
68192;SDS011;55012;47.562;18.414;2023-12-29T08:45:22;47.22;;;22.20;;
68192;SDS011;55012;47.562;18.414;2023-12-29T08:47:48;42.17;;;19.92;;
68192;SDS011;55012;47.562;18.414;2023-12-29T08:50:13;48.63;;;21.52;;
68192;SDS011;55012;47.562;18.414;2023-12-29T08:52:40;44.17;;;21.05;;
68192;SDS011;55012;47.562;18.414;2023-12-29T08:55:05;47.75;;;21.60;;
68192;SDS011;55012;47.562;18.414;2023-12-29T08:57:31;47.72;;;23.52;;
68192;SDS011;55012;47.562;18.414;2023-12-29T08:59:56;52.45;;;24.65;;
68192;SDS011;55012;47.562;18.414;2023-12-29T09:02:22;48.47;;;23.05;;
68192;SDS011;55012;47.562;18.414;2023-12-29T09:04:47;48.90;;;22.95;;
68192;SDS011;55012;47.562;18.414;2023-12-29T09:07:12;47.22;;;21.65;;
68192;SDS011;55012;47.562;18.414;2023-12-29T09:09:38;48.67;;;22.77;;
68192;SDS011;55012;47.562;18.414;2023-12-29T09:12:04;46.55;;;23.08;;
68192;SDS011;55012;47.562;18.414;2023-12-29T09:14:29;52.25;;;23.50;;
68192;SDS011;55012;47.562;18.414;2023-12-29T09:16:57;47.40;;;22.38;;
68192;SDS011;55012;47.562;18.414;2023-12-29T09:19:22;41.35;;;20.90;;
68192;SDS011;55012;47.562;18.414;2023-12-29T09:21:48;46.65;;;22.52;;
68192;SDS011;55012;47.562;18.414;2023-12-29T09:24:13;37.38;;;19.17;;
68192;SDS011;55012;47.562;18.414;2023-12-29T09:26:38;37.20;;;18.88;;
68192;SDS011;55012;47.562;18.414;2023-12-29T09:29:04;36.90;;;18.80;;
68192;SDS011;55012;47.562;18.414;2023-12-29T09:31:29;36.25;;;18.48;;
68192;SDS011;55012;47.562;18.414;2023-12-29T09:33:55;37.45;;;17.98;;
68192;SDS011;55012;47.562;18.414;2023-12-29T09:36:21;42.10;;;20.77;;
68192;SDS011;55012;47.562;18.414;2023-12-29T09:38:47;36.65;;;18.60;;
68192;SDS011;55012;47.562;18.414;2023-12-29T09:41:13;37.20;;;18.35;;
68192;SDS011;55012;47.562;18.414;2023-12-29T09:43:40;37.78;;;19.73;;
68192;SDS011;55012;47.562;18.414;2023-12-29T09:46:05;37.72;;;19.67;;
68192;SDS011;55012;47.562;18.414;2023-12-29T09:48:33;35.60;;;19.10;;
68192;SDS011;55012;47.562;18.414;2023-12-29T09:51:01;36.67;;;18.10;;
68192;SDS011;55012;47.562;18.414;2023-12-29T09:53:28;36.03;;;18.98;;
68192;SDS011;55012;47.562;18.414;2023-12-29T09:55:55;37.03;;;19.17;;
68192;SDS011;55012;47.562;18.414;2023-12-29T09:58:24;37.28;;;19.73;;
68192;SDS011;55012;47.562;18.414;2023-12-29T10:00:50;40.17;;;19.92;;
68192;SDS011;55012;47.562;18.414;2023-12-29T10:03:16;45.30;;;21.58;;
68192;SDS011;55012;47.562;18.414;2023-12-29T10:05:42;47.28;;;22.92;;
68192;SDS011;55012;47.562;18.414;2023-12-29T10:08:10;46.08;;;22.45;;
68192;SDS011;55012;47.562;18.414;2023-12-29T10:10:36;44.22;;;23.38;;
68192;SDS011;55012;47.562;18.414;2023-12-29T10:13:04;41.60;;;21.55;;
68192;SDS011;55012;47.562;18.414;2023-12-29T10:21:19;36.78;;;19.15;;
68192;SDS011;55012;47.562;18.414;2023-12-29T10:24:12;35.42;;;18.30;;
68192;SDS011;55012;47.562;18.414;2023-12-29T10:26:42;34.67;;;18.77;;
68192;SDS011;55012;47.562;18.414;2023-12-29T10:29:09;41.75;;;20.65;;
68192;SDS011;55012;47.562;18.414;2023-12-29T10:31:35;37.03;;;18.35;;
68192;SDS011;55012;47.562;18.414;2023-12-29T10:34:17;34.95;;;19.15;;
68192;SDS011;55012;47.562;18.414;2023-12-29T10:36:56;34.95;;;19.08;;
68192;SDS011;55012;47.562;18.414;2023-12-29T10:39:26;40.80;;;19.67;;
68192;SDS011;55012;47.562;18.414;2023-12-29T10:42:03;42.63;;;21.52;;
68192;SDS011;55012;47.562;18.414;2023-12-29T10:44:30;37.95;;;20.10;;
68192;SDS011;55012;47.562;18.414;2023-12-29T10:46:55;45.05;;;23.17;;
68192;SDS011;55012;47.562;18.414;2023-12-29T10:49:21;42.90;;;21.67;;
68192;SDS011;55012;47.562;18.414;2023-12-29T10:51:46;43.05;;;21.90;;
68192;SDS011;55012;47.562;18.414;2023-12-29T10:54:19;42.13;;;21.83;;
68192;SDS011;55012;47.562;18.414;2023-12-29T10:57:01;44.97;;;24.30;;
68192;SDS011;55012;47.562;18.414;2023-12-29T10:59:29;46.30;;;24.25;;
68192;SDS011;55012;47.562;18.414;2023-12-29T11:01:55;50.03;;;25.52;;
68192;SDS011;55012;47.562;18.414;2023-12-29T11:04:24;49.78;;;25.95;;
68192;SDS011;55012;47.562;18.414;2023-12-29T11:06:50;51.80;;;27.40;;
68192;SDS011;55012;47.562;18.414;2023-12-29T11:09:31;49.03;;;26.35;;
68192;SDS011;55012;47.562;18.414;2023-12-29T11:12:00;52.28;;;26.00;;
68192;SDS011;55012;47.562;18.414;2023-12-29T11:14:26;49.17;;;25.25;;
68192;SDS011;55012;47.562;18.414;2023-12-29T11:16:55;46.53;;;25.13;;
68192;SDS011;55012;47.562;18.414;2023-12-29T11:19:25;50.70;;;26.42;;
68192;SDS011;55012;47.562;18.414;2023-12-29T11:21:52;46.28;;;24.27;;
68192;SDS011;55012;47.562;18.414;2023-12-29T11:24:19;43.90;;;24.38;;
68192;SDS011;55012;47.562;18.414;2023-12-29T11:26:44;42.22;;;23.90;;
68192;SDS011;55012;47.562;18.414;2023-12-29T11:29:11;43.38;;;24.13;;
68192;SDS011;55012;47.562;18.414;2023-12-29T11:31:37;41.33;;;22.95;;
68192;SDS011;55012;47.562;18.414;2023-12-29T11:40:18;34.85;;;20.13;;
68192;SDS011;55012;47.562;18.414;2023-12-29T11:42:47;35.88;;;19.70;;
68192;SDS011;55012;47.562;18.414;2023-12-29T11:45:30;36.78;;;20.85;;
68192;SDS011;55012;47.562;18.414;2023-12-29T11:48:00;40.55;;;22.05;;
68192;SDS011;55012;47.562;18.414;2023-12-29T11:50:40;35.03;;;20.08;;
68192;SDS011;55012;47.562;18.414;2023-12-29T11:53:06;32.75;;;18.67;;
68192;SDS011;55012;47.562;18.414;2023-12-29T11:58:01;31.98;;;18.45;;
68192;SDS011;55012;47.562;18.414;2023-12-29T12:05:53;30.33;;;17.95;;
68192;SDS011;55012;47.562;18.414;2023-12-29T12:10:53;31.35;;;17.35;;
68192;SDS011;55012;47.562;18.414;2023-12-29T12:16:10;31.42;;;17.60;;
68192;SDS011;55012;47.562;18.414;2023-12-29T12:18:55;34.70;;;17.95;;
68192;SDS011;55012;47.562;18.414;2023-12-29T12:21:21;28.73;;;17.05;;
68192;SDS011;55012;47.562;18.414;2023-12-29T12:23:48;29.85;;;16.70;;
68192;SDS011;55012;47.562;18.414;2023-12-29T12:26:15;30.02;;;17.48;;
68192;SDS011;55012;47.562;18.414;2023-12-29T12:28:43;28.75;;;16.60;;
68192;SDS011;55012;47.562;18.414;2023-12-29T12:31:10;28.33;;;16.40;;
68192;SDS011;55012;47.562;18.414;2023-12-29T12:33:38;29.63;;;17.15;;
68192;SDS011;55012;47.562;18.414;2023-12-29T12:36:03;26.17;;;15.35;;
68192;SDS011;55012;47.562;18.414;2023-12-29T12:38:29;28.00;;;16.23;;
68192;SDS011;55012;47.562;18.414;2023-12-29T12:40:57;29.75;;;17.25;;
68192;SDS011;55012;47.562;18.414;2023-12-29T12:43:22;30.98;;;18.15;;
68192;SDS011;55012;47.562;18.414;2023-12-29T12:45:55;32.25;;;19.02;;
68192;SDS011;55012;47.562;18.414;2023-12-29T12:48:29;31.48;;;18.63;;
68192;SDS011;55012;47.562;18.414;2023-12-29T12:53:25;31.42;;;19.15;;
68192;SDS011;55012;47.562;18.414;2023-12-29T12:55:52;35.63;;;19.65;;
68192;SDS011;55012;47.562;18.414;2023-12-29T12:58:19;34.63;;;20.90;;
68192;SDS011;55012;47.562;18.414;2023-12-29T13:00:47;34.95;;;20.05;;
68192;SDS011;55012;47.562;18.414;2023-12-29T13:03:14;37.15;;;20.73;;
68192;SDS011;55012;47.562;18.414;2023-12-29T13:05:40;33.15;;;19.85;;
68192;SDS011;55012;47.562;18.414;2023-12-29T13:08:06;32.08;;;19.70;;
68192;SDS011;55012;47.562;18.414;2023-12-29T13:10:32;33.90;;;20.40;;
68192;SDS011;55012;47.562;18.414;2023-12-29T13:12:58;34.75;;;20.45;;
68192;SDS011;55012;47.562;18.414;2023-12-29T13:15:23;34.38;;;19.30;;
68192;SDS011;55012;47.562;18.414;2023-12-29T13:17:52;33.90;;;19.65;;
68192;SDS011;55012;47.562;18.414;2023-12-29T13:20:18;42.85;;;23.25;;
68192;SDS011;55012;47.562;18.414;2023-12-29T13:22:46;32.65;;;18.23;;
68192;SDS011;55012;47.562;18.414;2023-12-29T13:25:12;29.30;;;17.23;;
68192;SDS011;55012;47.562;18.414;2023-12-29T13:27:44;29.75;;;16.65;;
68192;SDS011;55012;47.562;18.414;2023-12-29T13:30:10;31.10;;;17.70;;
68192;SDS011;55012;47.562;18.414;2023-12-29T13:32:37;30.77;;;17.65;;
68192;SDS011;55012;47.562;18.414;2023-12-29T13:43:19;31.90;;;18.77;;
68192;SDS011;55012;47.562;18.414;2023-12-29T13:45:46;28.48;;;17.08;;
68192;SDS011;55012;47.562;18.414;2023-12-29T13:48:13;31.38;;;17.77;;
68192;SDS011;55012;47.562;18.414;2023-12-29T13:50:39;35.13;;;19.08;;
68192;SDS011;55012;47.562;18.414;2023-12-29T13:53:09;32.92;;;18.80;;
68192;SDS011;55012;47.562;18.414;2023-12-29T13:55:41;32.25;;;18.98;;
68192;SDS011;55012;47.562;18.414;2023-12-29T13:58:10;32.95;;;19.33;;
68192;SDS011;55012;47.562;18.414;2023-12-29T14:00:36;30.92;;;17.45;;
68192;SDS011;55012;47.562;18.414;2023-12-29T14:03:05;32.45;;;18.35;;
68192;SDS011;55012;47.562;18.414;2023-12-29T14:10:51;29.33;;;17.10;;
68192;SDS011;55012;47.562;18.414;2023-12-29T14:13:18;33.75;;;17.70;;
68192;SDS011;55012;47.562;18.414;2023-12-29T14:15:45;32.53;;;18.52;;
68192;SDS011;55012;47.562;18.414;2023-12-29T14:20:48;29.48;;;17.45;;
68192;SDS011;55012;47.562;18.414;2023-12-29T14:23:14;31.15;;;17.30;;
68192;SDS011;55012;47.562;18.414;2023-12-29T14:25:43;30.58;;;17.05;;
68192;SDS011;55012;47.562;18.414;2023-12-29T14:28:18;32.15;;;17.30;;
68192;SDS011;55012;47.562;18.414;2023-12-29T14:30:45;36.45;;;18.55;;
68192;SDS011;55012;47.562;18.414;2023-12-29T14:33:12;35.15;;;18.63;;
68192;SDS011;55012;47.562;18.414;2023-12-29T14:35:38;33.03;;;17.92;;
68192;SDS011;55012;47.562;18.414;2023-12-29T14:38:03;32.80;;;17.77;;
68192;SDS011;55012;47.562;18.414;2023-12-29T14:40:29;30.70;;;17.42;;
68192;SDS011;55012;47.562;18.414;2023-12-29T14:42:55;32.78;;;17.77;;
68192;SDS011;55012;47.562;18.414;2023-12-29T14:45:20;30.95;;;17.13;;
68192;SDS011;55012;47.562;18.414;2023-12-29T14:47:45;31.73;;;17.05;;
68192;SDS011;55012;47.562;18.414;2023-12-29T14:50:12;33.05;;;17.92;;
68192;SDS011;55012;47.562;18.414;2023-12-29T14:52:37;32.78;;;18.55;;
68192;SDS011;55012;47.562;18.414;2023-12-29T14:55:03;31.80;;;17.65;;